Time;durP1;ratioP1;P1;durP2;ratioP2;P2;SDS_P1;SDS_P2;PMS_P1;PMS_P2;Temp;Humidity;BMP_temperature;BMP_pressure;BME280_temperature;BME280_humidity;BME280_pressure;Samples;Min_cycle;Max_cycle;Signal;HPM_P1;HPM_P2
2023/03/11 00:01:12;;;;;;;1.40;1.30;;;3.30;99.90;;;;;;6048964;23;20685;-68
2023/03/11 00:03:40;;;;;;;1.52;1.42;;;3.30;99.90;;;;;;6053741;23;20192;-68
2023/03/11 00:06:07;;;;;;;1.50;1.40;;;3.30;99.90;;;;;;6060075;23;20246;-67
2023/03/11 00:08:34;;;;;;;1.73;1.63;;;3.30;99.90;;;;;;6062318;23;20192;-68
2023/03/11 00:11:01;;;;;;;1.40;1.30;;;3.30;99.90;;;;;;6047855;23;20193;-68
2023/03/11 00:13:29;;;;;;;2.28;1.50;;;3.30;99.90;;;;;;6033633;23;20275;-68
2023/03/11 00:15:58;;;;;;;1.50;1.40;;;3.20;99.90;;;;;;6052524;23;20216;-67
2023/03/11 00:18:30;;;;;;;1.75;1.30;;;3.20;99.90;;;;;;6062085;23;20298;-69
2023/03/11 00:20:58;;;;;;;1.40;1.30;;;3.20;99.90;;;;;;6052082;23;20853;-67
2023/03/11 00:23:26;;;;;;;3.50;1.92;;;3.20;99.90;;;;;;6033599;23;20189;-68
2023/03/11 00:25:53;;;;;;;1.98;1.48;;;3.10;99.90;;;;;;6050597;23;20243;-68
2023/03/11 00:28:21;;;;;;;1.52;1.42;;;3.10;99.90;;;;;;6036304;23;20200;-68
2023/03/11 00:30:48;;;;;;;2.10;1.90;;;3.00;99.90;;;;;;6033627;23;20333;-67
2023/03/11 00:33:16;;;;;;;1.70;1.60;;;2.90;99.90;;;;;;6033931;23;20216;-68
2023/03/11 00:35:45;;;;;;;2.17;1.70;;;2.90;99.90;;;;;;6047692;23;20213;-68
2023/03/11 00:38:14;;;;;;;2.08;1.88;;;2.90;99.90;;;;;;6060951;23;20222;-68
2023/03/11 00:40:42;;;;;;;1.70;1.60;;;2.90;99.90;;;;;;6056184;23;20201;-68
2023/03/11 00:43:09;;;;;;;1.80;1.70;;;2.90;99.90;;;;;;6032956;23;20185;-68
2023/03/11 00:45:36;;;;;;;2.00;1.60;;;2.90;99.90;;;;;;6056339;23;20240;-68
2023/03/11 00:48:04;;;;;;;1.95;1.85;;;2.90;99.90;;;;;;6062334;23;20626;-68
2023/03/11 00:50:33;;;;;;;1.88;1.60;;;2.90;99.90;;;;;;6057408;23;20283;-68
2023/03/11 00:53:03;;;;;;;1.50;1.40;;;2.90;99.90;;;;;;6033488;23;20222;-68
2023/03/11 00:55:32;;;;;;;2.85;2.00;;;2.90;99.90;;;;;;6054209;23;20223;-68
2023/03/11 00:58:00;;;;;;;1.80;1.70;;;3.00;99.90;;;;;;6061818;23;20273;-68
2023/03/11 01:00:28;;;;;;;2.10;2.00;;;3.00;99.90;;;;;;6055636;23;20224;-67
2023/03/11 01:02:56;;;;;;;1.88;1.77;;;3.00;99.90;;;;;;6036049;23;20219;-68
2023/03/11 01:05:25;;;;;;;2.30;2.15;;;3.00;99.90;;;;;;6048037;23;20302;-68
2023/03/11 01:07:52;;;;;;;2.55;1.70;;;2.90;99.90;;;;;;6047119;23;20191;-68
2023/03/11 01:10:21;;;;;;;2.25;2.03;;;2.90;99.90;;;;;;6051753;23;20268;-69
2023/03/11 01:12:48;;;;;;;2.28;1.77;;;2.90;99.90;;;;;;6039010;23;20711;-68
2023/03/11 01:15:19;;;;;;;2.05;1.90;;;2.90;99.90;;;;;;6049184;23;20215;-68
2023/03/11 01:17:46;;;;;;;2.55;1.85;;;2.80;99.90;;;;;;6063198;23;20588;-68
2023/03/11 01:20:13;;;;;;;1.63;1.52;;;2.80;99.90;;;;;;6061432;23;20278;-68
2023/03/11 01:22:41;;;;;;;2.13;1.92;;;2.80;99.90;;;;;;6063241;23;20255;-68
2023/03/11 01:25:09;;;;;;;2.20;1.90;;;2.80;99.90;;;;;;6032591;23;20670;-68
2023/03/11 01:27:37;;;;;;;3.22;1.90;;;2.70;99.90;;;;;;6029052;23;20196;-68
2023/03/11 01:30:05;;;;;;;2.13;1.90;;;2.80;99.90;;;;;;6045504;23;20199;-68
2023/03/11 01:32:32;;;;;;;1.98;1.80;;;2.70;99.90;;;;;;6060143;23;20722;-68
2023/03/11 01:34:59;;;;;;;1.95;1.85;;;2.70;99.90;;;;;;6062903;23;20216;-67
2023/03/11 01:37:26;;;;;;;2.92;1.90;;;2.80;99.90;;;;;;6047590;23;20194;-68
2023/03/11 01:39:53;;;;;;;1.88;1.77;;;2.80;99.90;;;;;;6050816;23;20554;-68
2023/03/11 01:42:20;;;;;;;4.10;1.92;;;2.70;99.90;;;;;;6037032;23;20388;-68
2023/03/11 01:44:49;;;;;;;1.85;1.75;;;2.70;99.90;;;;;;6062921;23;20184;-67
2023/03/11 01:47:35;;;;;;;2.35;1.70;;;2.70;99.90;;;;;;6061074;23;21087;-68
2023/03/11 01:50:03;;;;;;;2.35;2.00;;;2.70;99.90;;;;;;6058346;23;20274;-68
2023/03/11 01:52:30;;;;;;;2.50;1.63;;;2.60;99.90;;;;;;6037873;23;20189;-67
2023/03/11 01:54:57;;;;;;;2.92;1.65;;;2.60;99.90;;;;;;6005534;23;20724;-68
2023/03/11 01:57:24;;;;;;;2.53;1.70;;;2.60;99.90;;;;;;6028235;23;20313;-68
2023/03/11 01:59:57;;;;;;;2.25;1.88;;;2.60;99.90;;;;;;6031584;23;20311;-67
2023/03/11 02:02:30;;;;;;;3.20;1.60;;;2.50;99.90;;;;;;6036712;23;20194;-68
2023/03/11 02:05:00;;;;;;;2.05;1.60;;;2.50;99.90;;;;;;6051277;23;20285;-68
2023/03/11 02:07:28;;;;;;;2.00;1.85;;;2.50;99.90;;;;;;6034015;23;20634;-67
2023/03/11 02:09:55;;;;;;;3.17;1.80;;;2.50;99.90;;;;;;6034281;23;20192;-68
2023/03/11 02:12:22;;;;;;;2.70;1.73;;;2.50;99.90;;;;;;6032864;23;20207;-69
2023/03/11 02:14:53;;;;;;;1.70;1.60;;;2.50;99.90;;;;;;6031836;23;21457;-67
2023/03/11 02:17:21;;;;;;;2.10;1.70;;;2.40;99.90;;;;;;6033723;23;20209;-69
2023/03/11 02:20:02;;;;;;;2.53;1.70;;;2.40;99.90;;;;;;6033712;23;20297;-68
2023/03/11 02:22:32;;;;;;;1.50;1.40;;;2.40;99.90;;;;;;6034216;23;20198;-68
2023/03/11 02:25:04;;;;;;;2.25;1.70;;;2.40;99.90;;;;;;6033908;23;20210;-68
2023/03/11 02:27:36;;;;;;;2.50;1.50;;;2.30;99.90;;;;;;6034237;23;20190;-69
2023/03/11 02:30:03;;;;;;;2.22;1.80;;;2.30;99.90;;;;;;6032906;23;20196;-68
2023/03/11 02:32:31;;;;;;;2.00;1.77;;;2.30;99.90;;;;;;6033180;23;20198;-68
2023/03/11 02:34:58;;;;;;;1.88;1.77;;;2.30;99.90;;;;;;6033767;23;20240;-67
2023/03/11 02:37:25;;;;;;;2.65;1.65;;;2.30;99.90;;;;;;6034050;23;20191;-69
2023/03/11 02:39:53;;;;;;;1.77;1.40;;;2.20;99.90;;;;;;6034018;23;20232;-68
2023/03/11 02:42:25;;;;;;;2.47;1.50;;;2.10;99.90;;;;;;6053387;23;20216;-68
2023/03/11 02:44:58;;;;;;;2.53;1.30;;;2.10;99.90;;;;;;6046498;23;20213;-67
2023/03/11 02:47:27;;;;;;;2.78;1.60;;;2.10;99.90;;;;;;6033748;23;20730;-69
2023/03/11 02:49:56;;;;;;;2.60;1.70;;;2.00;99.90;;;;;;6035767;23;20659;-68
2023/03/11 02:52:25;;;;;;;1.42;1.33;;;2.00;99.90;;;;;;6036409;23;20196;-68
2023/03/11 02:54:52;;;;;;;1.50;1.40;;;2.00;99.90;;;;;;6047172;23;20550;-68
2023/03/11 02:57:19;;;;;;;3.25;1.48;;;1.90;99.90;;;;;;6049668;23;20201;-68
2023/03/11 02:59:46;;;;;;;1.85;1.70;;;1.90;99.90;;;;;;6049604;23;20222;-68
2023/03/11 03:02:15;;;;;;;1.63;1.50;;;1.80;99.90;;;;;;6033338;23;20277;-68
2023/03/11 03:04:42;;;;;;;2.33;1.60;;;1.80;99.90;;;;;;6054911;23;20203;-68
2023/03/11 03:07:09;;;;;;;3.25;1.63;;;1.70;99.90;;;;;;6044552;23;20296;-68
2023/03/11 03:09:36;;;;;;;1.67;1.48;;;1.70;99.90;;;;;;6034030;23;20243;-68
2023/03/11 03:12:05;;;;;;;3.28;1.52;;;1.60;99.90;;;;;;6034128;23;20517;-68
2023/03/11 03:14:32;;;;;;;2.10;1.40;;;1.60;99.90;;;;;;6032009;23;20228;-67
2023/03/11 03:16:59;;;;;;;2.38;1.58;;;1.50;99.90;;;;;;6033883;23;20193;-68
2023/03/11 03:19:27;;;;;;;2.30;1.30;;;1.50;99.90;;;;;;6049607;23;20298;-68
2023/03/11 03:21:54;;;;;;;2.45;1.17;;;1.50;99.90;;;;;;6005590;23;20545;-67
2023/03/11 03:24:21;;;;;;;2.55;1.25;;;1.40;99.90;;;;;;6033567;23;20685;-68
2023/03/11 03:26:48;;;;;;;2.25;1.17;;;1.40;99.90;;;;;;6050059;23;20301;-68
2023/03/11 03:29:15;;;;;;;1.73;1.25;;;1.40;99.90;;;;;;6048848;23;20495;-68
2023/03/11 03:31:42;;;;;;;1.60;1.00;;;1.30;99.90;;;;;;6051873;23;20223;-68
2023/03/11 03:34:10;;;;;;;1.83;1.20;;;1.30;99.90;;;;;;6054117;23;20368;-68
2023/03/11 03:36:38;;;;;;;1.55;1.10;;;1.30;99.90;;;;;;6060214;23;20220;-67
2023/03/11 03:39:06;;;;;;;2.10;1.15;;;1.20;99.90;;;;;;6059570;23;20214;-67
2023/03/11 03:41:33;;;;;;;1.20;1.10;;;1.20;99.90;;;;;;6041680;23;20252;-67
2023/03/11 03:44:00;;;;;;;4.53;1.17;;;1.20;99.90;;;;;;6020137;23;20198;-67
2023/03/11 03:46:27;;;;;;;2.58;1.20;;;1.20;99.90;;;;;;6042146;23;20295;-68
2023/03/11 03:48:54;;;;;;;1.67;1.20;;;1.10;99.90;;;;;;6032667;23;20244;-68
2023/03/11 03:51:21;;;;;;;2.95;1.48;;;1.10;99.90;;;;;;6058058;23;20200;-67
2023/03/11 03:53:49;;;;;;;3.22;1.58;;;1.10;99.90;;;;;;6061408;23;20223;-67
2023/03/11 03:56:18;;;;;;;4.25;1.52;;;1.10;99.90;;;;;;6032068;23;20250;-68
2023/03/11 03:58:44;;;;;;;1.60;1.00;;;1.10;99.90;;;;;;6051189;23;20598;-68
2023/03/11 04:01:13;;;;;;;3.15;1.35;;;1.10;99.90;;;;;;6033434;23;20289;-68
2023/03/11 04:03:40;;;;;;;1.25;0.85;;;1.10;99.90;;;;;;6035178;23;20194;-68
2023/03/11 04:06:08;;;;;;;2.17;1.15;;;1.10;99.90;;;;;;6021537;23;20214;-68
2023/03/11 04:08:36;;;;;;;2.35;1.17;;;1.10;99.90;;;;;;6019513;23;20241;-68
2023/03/11 04:11:04;;;;;;;2.60;1.50;;;1.10;99.90;;;;;;6055648;23;20197;-68
2023/03/11 04:13:31;;;;;;;1.48;1.20;;;1.10;99.90;;;;;;6046337;23;20245;-68
2023/03/11 04:15:58;;;;;;;5.47;1.40;;;1.20;99.90;;;;;;6026926;23;20263;-68
2023/03/11 04:18:26;;;;;;;2.67;1.50;;;1.20;99.90;;;;;;6062357;23;20721;-68
2023/03/11 04:20:53;;;;;;;3.40;1.30;;;1.20;99.90;;;;;;6032214;23;20361;-68
2023/03/11 04:23:20;;;;;;;2.60;1.40;;;1.10;99.90;;;;;;6044299;23;20247;-67
2023/03/11 04:25:47;;;;;;;1.45;1.20;;;1.10;99.90;;;;;;6054418;23;20266;-68
2023/03/11 04:28:15;;;;;;;1.52;1.42;;;1.00;99.90;;;;;;6053835;23;20607;-67
2023/03/11 04:30:42;;;;;;;2.40;1.50;;;1.00;99.90;;;;;;6057993;23;20196;-67
2023/03/11 04:33:09;;;;;;;1.83;1.40;;;1.00;99.90;;;;;;6059357;23;20628;-67
2023/03/11 04:35:38;;;;;;;2.10;1.58;;;1.00;99.90;;;;;;6047075;23;20297;-67
2023/03/11 04:38:05;;;;;;;2.65;1.35;;;0.90;99.90;;;;;;6032951;23;20269;-68
2023/03/11 04:40:32;;;;;;;2.00;1.15;;;0.90;99.90;;;;;;6038633;23;20221;-67
2023/03/11 04:42:59;;;;;;;2.53;1.50;;;0.90;99.90;;;;;;6062212;23;20192;-68
2023/03/11 04:45:28;;;;;;;1.67;1.33;;;0.90;99.90;;;;;;6058663;23;20220;-68
2023/03/11 04:47:55;;;;;;;3.83;1.40;;;0.90;99.90;;;;;;6062600;23;20220;-68
2023/03/11 04:50:21;;;;;;;2.60;1.50;;;0.80;99.90;;;;;;6037701;23;20273;-67
2023/03/11 04:52:49;;;;;;;2.17;1.50;;;0.80;99.90;;;;;;6048268;23;20190;-67
2023/03/11 04:55:16;;;;;;;1.70;1.50;;;0.80;99.90;;;;;;6039818;23;20209;-67
2023/03/11 04:57:43;;;;;;;2.30;1.60;;;0.80;99.90;;;;;;6057515;23;20225;-68
2023/03/11 05:00:14;;;;;;;2.83;1.60;;;0.80;99.90;;;;;;6031864;23;20305;-68
2023/03/11 05:02:43;;;;;;;2.90;2.20;;;0.80;99.90;;;;;;6053590;23;20189;-67
2023/03/11 05:05:10;;;;;;;2.22;1.85;;;0.80;99.90;;;;;;6039278;23;20743;-67
2023/03/11 05:07:37;;;;;;;4.60;1.88;;;0.80;99.90;;;;;;6037779;23;20200;-67
2023/03/11 05:10:06;;;;;;;3.45;1.80;;;0.80;99.90;;;;;;6033208;23;20189;-67
2023/03/11 05:12:33;;;;;;;2.58;1.60;;;0.80;99.90;;;;;;6049957;23;20728;-68
2023/03/11 05:15:00;;;;;;;3.83;1.90;;;0.80;99.90;;;;;;6032995;23;20284;-67
2023/03/11 05:17:27;;;;;;;2.30;1.50;;;0.80;99.90;;;;;;6056468;23;20201;-68
2023/03/11 05:19:56;;;;;;;1.80;1.60;;;0.80;99.90;;;;;;6057435;23;20590;-68
2023/03/11 05:22:24;;;;;;;3.83;1.75;;;0.80;99.90;;;;;;6004528;23;20209;-68
2023/03/11 05:24:50;;;;;;;2.60;1.50;;;0.80;99.90;;;;;;6044519;23;20704;-68
2023/03/11 05:27:18;;;;;;;3.38;1.90;;;0.80;99.90;;;;;;6037411;23;20196;-68
2023/03/11 05:29:45;;;;;;;1.95;1.80;;;0.80;99.90;;;;;;6047059;23;20759;-67
2023/03/11 05:32:13;;;;;;;3.83;1.90;;;0.80;99.90;;;;;;6058604;23;20204;-68
2023/03/11 05:34:40;;;;;;;5.75;1.70;;;0.80;99.90;;;;;;6059955;23;20547;-67
2023/03/11 05:37:09;;;;;;;4.40;2.33;;;0.80;99.90;;;;;;6031804;23;20686;-68
2023/03/11 05:39:36;;;;;;;3.22;1.50;;;0.80;99.90;;;;;;6048424;23;20209;-68
2023/03/11 05:42:04;;;;;;;3.78;1.75;;;0.70;99.90;;;;;;6032600;23;20190;-68
2023/03/11 05:44:32;;;;;;;4.25;1.60;;;0.70;99.90;;;;;;6059948;23;20269;-70
2023/03/11 05:46:59;;;;;;;2.95;1.45;;;0.70;99.90;;;;;;6059382;23;20189;-68
2023/03/11 05:49:26;;;;;;;2.95;1.77;;;0.70;99.90;;;;;;6032909;23;20200;-67
2023/03/11 05:51:54;;;;;;;2.97;1.90;;;0.60;99.90;;;;;;6051866;23;20189;-68
2023/03/11 05:54:22;;;;;;;4.55;1.90;;;0.60;99.90;;;;;;6040430;23;20190;-68
2023/03/11 05:56:49;;;;;;;4.18;1.70;;;0.60;99.90;;;;;;6033249;23;20197;-68
2023/03/11 05:59:17;;;;;;;2.90;1.73;;;0.60;99.90;;;;;;6034540;23;20186;-66
2023/03/11 06:01:44;;;;;;;3.30;2.17;;;0.60;99.90;;;;;;6049736;23;20268;-66
2023/03/11 06:04:11;;;;;;;2.65;1.65;;;0.60;99.90;;;;;;6052247;23;20197;-66
2023/03/11 06:06:39;;;;;;;2.72;1.60;;;0.60;99.90;;;;;;6032439;23;20193;-68
2023/03/11 06:09:07;;;;;;;12.32;2.20;;;0.60;99.90;;;;;;6037186;23;20201;-69
2023/03/11 06:11:35;;;;;;;3.10;1.42;;;0.60;99.90;;;;;;6029207;23;20573;-68
2023/03/11 06:14:02;;;;;;;2.45;1.70;;;0.60;99.90;;;;;;6035427;23;20194;-67
2023/03/11 06:16:29;;;;;;;3.80;1.60;;;0.60;99.90;;;;;;6044514;23;20209;-68
2023/03/11 06:18:56;;;;;;;4.72;1.60;;;0.60;99.90;;;;;;6035606;23;20269;-67
2023/03/11 06:21:25;;;;;;;4.57;1.50;;;0.60;99.90;;;;;;6031246;23;20224;-66
2023/03/11 06:23:52;;;;;;;2.15;1.55;;;0.60;99.90;;;;;;6022585;23;20197;-67
2023/03/11 06:26:20;;;;;;;5.75;1.75;;;0.60;99.90;;;;;;6050174;23;20205;-68
2023/03/11 06:28:50;;;;;;;4.53;1.83;;;0.70;99.90;;;;;;6033217;23;20265;-67
2023/03/11 06:31:20;;;;;;;1.65;1.20;;;0.80;99.90;;;;;;6042348;23;20224;-68
2023/03/11 06:33:47;;;;;;;3.63;1.50;;;0.80;99.90;;;;;;6030364;23;20272;-68
2023/03/11 06:36:16;;;;;;;3.83;2.03;;;0.80;99.90;;;;;;6036518;23;20316;-68
2023/03/11 06:38:45;;;;;;;3.53;1.60;;;0.80;99.90;;;;;;6037599;23;20193;-67
2023/03/11 06:41:12;;;;;;;1.70;1.48;;;0.80;99.90;;;;;;6030415;23;20573;-67
2023/03/11 06:43:40;;;;;;;4.30;2.00;;;0.90;99.90;;;;;;6036797;23;20644;-68
2023/03/11 06:46:12;;;;;;;4.30;1.48;;;1.00;99.90;;;;;;6045175;23;20206;-68
2023/03/11 06:48:40;;;;;;;5.40;1.60;;;1.00;99.90;;;;;;6035786;23;20269;-68
2023/03/11 06:51:07;;;;;;;2.72;1.60;;;1.10;99.90;;;;;;6046029;23;20253;-71
2023/03/11 06:53:34;;;;;;;2.97;1.10;;;1.30;99.90;;;;;;6034807;23;20193;-71
2023/03/11 06:56:04;;;;;;;3.47;1.80;;;1.60;99.90;;;;;;6045351;23;20237;-70
2023/03/11 06:58:32;;;;;;;4.47;1.75;;;2.00;99.90;;;;;;6041151;23;20197;-70
2023/03/11 07:01:02;;;;;;;4.45;1.33;;;2.60;99.90;;;;;;6032961;23;20230;-68
2023/03/11 07:03:31;;;;;;;2.03;1.30;;;2.80;99.90;;;;;;6041064;23;20928;-68
2023/03/11 07:05:58;;;;;;;2.22;1.20;;;2.90;99.90;;;;;;6045029;23;20234;-68
2023/03/11 07:08:26;;;;;;;2.15;1.38;;;2.90;99.90;;;;;;6040517;23;20244;-70
2023/03/11 07:11:01;;;;;;;4.38;1.80;;;2.90;99.90;;;;;;6055537;23;20192;-70
2023/03/11 07:13:28;;;;;;;3.28;1.38;;;2.90;99.90;;;;;;6058258;23;20202;-69
2023/03/11 07:16:04;;;;;;;3.45;1.95;;;2.90;99.90;;;;;;6055315;23;20222;-68
2023/03/11 07:18:33;;;;;;;3.95;1.75;;;2.90;99.90;;;;;;6049604;23;20254;-66
2023/03/11 07:21:02;;;;;;;3.47;1.88;;;2.80;99.90;;;;;;6031085;23;20309;-68
2023/03/11 07:23:29;;;;;;;4.45;1.45;;;2.80;99.90;;;;;;6058675;23;20202;-68
2023/03/11 07:25:56;;;;;;;3.67;1.55;;;2.80;99.90;;;;;;6057291;23;20293;-67
2023/03/11 07:28:23;;;;;;;3.67;1.67;;;2.90;99.90;;;;;;6062710;23;20196;-68
2023/03/11 07:30:50;;;;;;;6.28;1.70;;;3.00;99.90;;;;;;6061104;23;20224;-68
2023/03/11 07:33:18;;;;;;;4.43;1.40;;;3.10;99.90;;;;;;6041669;23;20202;-69
2023/03/11 07:35:48;;;;;;;2.65;1.75;;;3.30;99.90;;;;;;6044495;23;20572;-69
2023/03/11 07:38:15;;;;;;;2.80;1.52;;;3.40;99.90;;;;;;6056986;23;20189;-68
2023/03/11 07:40:42;;;;;;;2.90;1.42;;;3.50;99.90;;;;;;6062375;23;20213;-68
2023/03/11 07:43:09;;;;;;;4.90;1.40;;;3.70;99.90;;;;;;6059553;23;20220;-67
2023/03/11 07:45:36;;;;;;;2.20;1.23;;;3.80;99.90;;;;;;6036190;23;20249;-68
2023/03/11 07:48:04;;;;;;;4.75;1.63;;;3.90;99.90;;;;;;6032269;23;20475;-67
2023/03/11 07:50:31;;;;;;;3.70;1.60;;;4.10;99.90;;;;;;6038847;23;20247;-67
2023/03/11 07:52:59;;;;;;;2.85;1.30;;;4.30;99.90;;;;;;6033115;23;20717;-68
2023/03/11 07:55:26;;;;;;;2.13;1.30;;;4.30;99.90;;;;;;6030973;23;20339;-67
2023/03/11 07:57:53;;;;;;;3.45;1.40;;;4.50;99.90;;;;;;6034618;23;20224;-67
2023/03/11 08:00:21;;;;;;;4.40;1.70;;;4.70;99.90;;;;;;6041086;23;20252;-67
2023/03/11 08:02:48;;;;;;;3.05;1.90;;;4.90;99.90;;;;;;6050767;23;20644;-68
2023/03/11 08:05:15;;;;;;;3.40;1.60;;;5.00;99.90;;;;;;6040930;23;20214;-68
2023/03/11 08:07:42;;;;;;;3.35;1.42;;;5.30;99.90;;;;;;6016014;23;20728;-69
2023/03/11 08:10:11;;;;;;;4.18;1.40;;;5.60;99.90;;;;;;6037646;23;20192;-68
2023/03/11 08:12:39;;;;;;;3.85;1.50;;;5.80;99.90;;;;;;6042294;23;20243;-67
2023/03/11 08:15:07;;;;;;;3.67;1.40;;;6.10;99.90;;;;;;6038694;23;20245;-67
2023/03/11 08:17:34;;;;;;;3.55;1.20;;;6.30;99.90;;;;;;6048906;23;20230;-67
2023/03/11 08:20:01;;;;;;;3.60;1.42;;;6.60;99.90;;;;;;6055267;23;20197;-68
2023/03/11 08:22:29;;;;;;;3.45;1.13;;;6.60;99.90;;;;;;6033019;23;20223;-68
2023/03/11 08:24:56;;;;;;;3.75;1.30;;;6.50;99.90;;;;;;6033109;23;20578;-66
2023/03/11 08:27:24;;;;;;;4.40;1.73;;;6.40;99.90;;;;;;6029871;23;20202;-67
2023/03/11 08:29:51;;;;;;;3.58;1.40;;;6.50;99.90;;;;;;6032594;23;20203;-68
2023/03/11 08:32:18;;;;;;;3.75;1.25;;;6.60;99.90;;;;;;6029418;23;20260;-67
2023/03/11 08:34:45;;;;;;;5.85;1.80;;;6.70;99.90;;;;;;6040938;23;20515;-68
2023/03/11 08:37:12;;;;;;;3.10;1.38;;;7.00;99.90;;;;;;6029949;23;20200;-68
2023/03/11 08:39:39;;;;;;;4.10;1.80;;;7.40;99.90;;;;;;6054344;23;20198;-68
2023/03/11 08:42:06;;;;;;;4.03;1.38;;;7.90;99.90;;;;;;6033675;23;20231;-68
2023/03/11 08:44:35;;;;;;;4.90;1.35;;;8.40;99.90;;;;;;6044413;23;20247;-68
2023/03/11 08:47:02;;;;;;;2.92;1.65;;;8.70;99.90;;;;;;6047167;23;20220;-68
2023/03/11 08:49:29;;;;;;;2.40;1.30;;;8.80;99.90;;;;;;6035180;23;20195;-68
2023/03/11 08:51:56;;;;;;;3.05;1.65;;;8.70;99.90;;;;;;6045895;23;20200;-68
2023/03/11 08:54:23;;;;;;;2.88;1.60;;;8.60;99.90;;;;;;6058818;23;20205;-68
2023/03/11 08:56:50;;;;;;;3.55;1.30;;;8.90;99.90;;;;;;6030230;23;20213;-68
2023/03/11 08:59:17;;;;;;;2.30;1.60;;;9.10;99.90;;;;;;6029667;23;20276;-68
2023/03/11 09:01:46;;;;;;;4.18;1.40;;;9.20;99.90;;;;;;6045405;23;20567;-68
2023/03/11 09:04:13;;;;;;;1.90;1.38;;;9.30;99.40;;;;;;6032650;23;20203;-66
2023/03/11 09:06:42;;;;;;;4.03;1.70;;;9.40;99.60;;;;;;6028267;23;20193;-67
2023/03/11 09:09:11;;;;;;;4.72;1.77;;;9.50;99.00;;;;;;6031089;23;20197;-67
2023/03/11 09:11:40;;;;;;;2.78;1.50;;;9.80;98.70;;;;;;6030335;23;20683;-68
2023/03/11 09:14:08;;;;;;;3.45;1.60;;;9.90;97.80;;;;;;6032259;23;20201;-68
2023/03/11 09:16:34;;;;;;;3.75;1.55;;;10.20;97.80;;;;;;6017628;23;20269;-68
2023/03/11 09:19:06;;;;;;;4.10;1.67;;;10.40;96.80;;;;;;6033434;23;20260;-68
2023/03/11 09:21:33;;;;;;;2.13;1.10;;;10.50;96.50;;;;;;6028149;23;20220;-68
2023/03/11 09:24:00;;;;;;;2.15;1.45;;;10.60;96.20;;;;;;6030434;23;20476;-68
2023/03/11 09:26:27;;;;;;;2.77;1.17;;;10.90;95.80;;;;;;6032183;23;20190;-68
2023/03/11 09:28:54;;;;;;;4.13;1.10;;;11.10;93.60;;;;;;6055103;23;20998;-68
2023/03/11 09:31:21;;;;;;;3.73;1.30;;;11.20;93.40;;;;;;6049781;23;20448;-68
2023/03/11 09:33:51;;;;;;;3.40;1.50;;;11.60;94.10;;;;;;6035556;23;20775;-68
2023/03/11 09:36:21;;;;;;;5.63;1.37;;;12.20;92.10;;;;;;6020651;23;20979;-68
2023/03/11 09:38:48;;;;;;;2.43;1.50;;;12.40;90.20;;;;;;6049823;23;20454;-68
2023/03/11 09:41:25;;;;;;;2.93;1.60;;;12.20;89.00;;;;;;6028996;23;20473;-68
2023/03/11 09:44:02;;;;;;;3.03;1.48;;;11.70;90.10;;;;;;6033813;23;20442;-68
2023/03/11 09:46:51;;;;;;;1.77;1.30;;;11.30;90.30;;;;;;6053879;23;20196;-68
2023/03/11 09:49:24;;;;;;;1.98;1.13;;;11.00;90.40;;;;;;6054560;23;20702;-68
2023/03/11 09:52:01;;;;;;;2.53;1.13;;;10.80;88.80;;;;;;6040357;23;20740;-71
2023/03/11 09:54:32;;;;;;;4.00;1.30;;;11.00;86.20;;;;;;6055145;23;20212;-67
2023/03/11 09:57:01;;;;;;;1.85;0.88;;;11.10;86.60;;;;;;6047190;23;20267;-68
2023/03/11 09:59:32;;;;;;;2.50;1.00;;;10.90;84.80;;;;;;6028308;23;20225;-69
2023/03/11 10:02:02;;;;;;;3.80;1.52;;;10.50;84.80;;;;;;6034485;23;20279;-70
2023/03/11 10:04:34;;;;;;;3.10;1.67;;;10.00;86.80;;;;;;6038465;23;20213;-69
2023/03/11 10:07:10;;;;;;;2.10;1.30;;;9.30;88.90;;;;;;6062023;23;20219;-69
2023/03/11 10:09:41;;;;;;;3.13;1.40;;;9.10;90.70;;;;;;6036466;23;20277;-70
2023/03/11 10:12:22;;;;;;;2.35;1.23;;;9.60;91.30;;;;;;6017824;23;20272;-70
2023/03/11 10:15:03;;;;;;;1.50;0.90;;;10.30;90.80;;;;;;6032728;23;20576;-72
2023/03/11 10:17:45;;;;;;;2.83;1.40;;;11.10;88.90;;;;;;6025907;23;20448;-68
2023/03/11 10:20:20;;;;;;;3.20;1.33;;;11.70;87.90;;;;;;6033719;23;20434;-67
2023/03/11 10:22:57;;;;;;;2.43;1.10;;;11.90;87.30;;;;;;6038701;23;20498;-69
2023/03/11 10:25:26;;;;;;;2.80;1.40;;;12.60;88.20;;;;;;6060786;23;20552;-69
2023/03/11 10:27:58;;;;;;;3.37;1.20;;;12.90;83.40;;;;;;6045218;23;20794;-69
2023/03/11 10:30:30;;;;;;;2.93;1.30;;;12.80;82.30;;;;;;6062691;23;20448;-69
2023/03/11 10:33:00;;;;;;;4.87;1.37;;;12.40;82.50;;;;;;6039465;23;20829;-68
2023/03/11 10:35:36;;;;;;;2.40;1.33;;;12.00;82.20;;;;;;6061195;23;20444;-68
2023/03/11 10:38:11;;;;;;;3.57;1.20;;;11.80;84.50;;;;;;6047901;23;20486;-68
2023/03/11 10:40:41;;;;;;;3.20;1.30;;;12.20;83.20;;;;;;6033984;23;20424;-67
2023/03/11 10:43:12;;;;;;;1.97;1.10;;;12.60;81.00;;;;;;6034037;23;20473;-68
2023/03/11 10:45:43;;;;;;;2.53;1.20;;;12.70;79.30;;;;;;6033013;23;20533;-68
2023/03/11 10:48:12;;;;;;;3.13;0.97;;;12.40;79.30;;;;;;6048003;23;20475;-68
2023/03/11 10:50:47;;;;;;;2.90;1.60;;;11.90;77.20;;;;;;6053163;23;20425;-68
2023/03/11 10:53:17;;;;;;;1.75;1.20;;;11.30;77.90;;;;;;6032637;23;20527;-68
2023/03/11 10:55:47;;;;;;;1.92;1.20;;;10.60;79.00;;;;;;6020144;23;20213;-68
2023/03/11 10:58:16;;;;;;;2.60;1.10;;;10.30;79.50;;;;;;6048994;23;20192;-69
2023/03/11 11:00:43;;;;;;;4.45;1.33;;;9.80;79.90;;;;;;6062468;23;20215;-68
2023/03/11 11:03:21;;;;;;;1.70;0.95;;;9.10;80.40;;;;;;6062739;23;20212;-68
2023/03/11 11:05:59;;;;;;;1.30;1.10;;;8.80;81.20;;;;;;6055356;23;20600;-68
2023/03/11 11:08:28;;;;;;;2.65;1.10;;;8.50;80.50;;;;;;6045578;23;20195;-68
2023/03/11 11:10:56;;;;;;;1.40;0.80;;;8.10;79.10;;;;;;6033545;23;20198;-68
2023/03/11 11:13:25;;;;;;;2.25;0.90;;;8.10;80.70;;;;;;6033649;23;20637;-68
2023/03/11 11:15:55;;;;;;;1.48;1.00;;;8.70;82.20;;;;;;6039021;23;20219;-68
2023/03/11 11:18:25;;;;;;;2.08;1.17;;;9.30;82.00;;;;;;6046865;23;20264;-69
2023/03/11 11:21:05;;;;;;;2.90;1.02;;;9.70;81.40;;;;;;6033450;23;20193;-68
2023/03/11 11:23:38;;;;;;;2.67;1.00;;;9.80;82.10;;;;;;6033335;23;20272;-69
2023/03/11 11:26:08;;;;;;;2.22;1.08;;;9.70;81.40;;;;;;6013632;23;20297;-69
2023/03/11 11:28:36;;;;;;;4.13;1.17;;;9.40;78.60;;;;;;6052561;23;20740;-68
2023/03/11 11:31:06;;;;;;;3.70;3.40;;;8.90;80.40;;;;;;6062726;23;20196;-68
2023/03/11 11:33:39;;;;;;;1.83;1.35;;;8.60;81.00;;;;;;6035026;23;20592;-68
2023/03/11 11:36:13;;;;;;;2.55;0.90;;;8.60;83.20;;;;;;6036871;23;20222;-68
2023/03/11 11:38:42;;;;;;;3.90;1.40;;;8.70;82.70;;;;;;6038724;23;20189;-68
2023/03/11 11:41:16;;;;;;;1.40;0.77;;;8.80;82.90;;;;;;6033939;23;20232;-68
2023/03/11 11:43:49;;;;;;;2.08;0.93;;;8.80;81.40;;;;;;6033307;23;20264;-68
2023/03/11 11:46:22;;;;;;;1.60;0.80;;;8.80;78.80;;;;;;6041630;23;20840;-68
2023/03/11 11:48:56;;;;;;;1.90;0.90;;;8.60;77.10;;;;;;6056720;23;20235;-68
2023/03/11 11:51:28;;;;;;;3.83;1.05;;;8.90;79.30;;;;;;6046964;23;20184;-68
2023/03/11 11:54:00;;;;;;;1.88;1.20;;;9.10;79.80;;;;;;6032252;23;20554;-68
2023/03/11 11:56:28;;;;;;;2.20;1.38;;;9.20;80.10;;;;;;6035804;23;20250;-68
2023/03/11 11:58:55;;;;;;;1.77;0.90;;;9.10;79.90;;;;;;6043563;23;20242;-68
2023/03/11 12:01:37;;;;;;;1.98;1.05;;;9.10;80.60;;;;;;6033520;23;20201;-68
2023/03/11 12:04:43;;;;;;;3.40;1.00;;;9.30;79.50;;;;;;6033517;23;20546;-68
2023/03/11 12:07:29;;;;;;;1.85;0.90;;;9.80;79.20;;;;;;6050130;23;20189;-68
2023/03/11 12:10:11;;;;;;;2.25;0.98;;;10.50;73.40;;;;;;6029626;23;20197;-68
2023/03/11 12:12:45;;;;;;;2.53;1.00;;;11.30;74.70;;;;;;6034998;23;20190;-68
2023/03/11 12:15:16;;;;;;;2.93;1.10;;;11.90;72.70;;;;;;6033151;23;20444;-68
2023/03/11 12:17:47;;;;;;;2.60;1.00;;;12.60;74.70;;;;;;6039855;23;20481;-69
2023/03/11 12:20:18;;;;;;;1.70;1.20;;;13.60;74.10;;;;;;6057285;23;20492;-69
2023/03/11 12:23:14;;;;;;;2.63;1.00;;;14.40;70.30;;;;;;6035241;23;20547;-68
2023/03/11 12:25:53;;;;;;;1.27;1.00;;;15.10;67.40;;;;;;6032948;23;20449;-68
2023/03/11 12:28:24;;;;;;;1.77;0.93;;;16.00;66.60;;;;;;6045380;23;20795;-69
2023/03/11 12:30:55;;;;;;;1.53;1.10;;;16.80;63.70;;;;;;6062154;23;20438;-68
2023/03/11 12:33:30;;;;;;;2.67;1.00;;;17.40;58.50;;;;;;6062002;23;20439;-69
2023/03/11 12:35:59;;;;;;;2.03;1.00;;;17.60;55.70;;;;;;6035827;23;21047;-68
2023/03/11 12:38:32;;;;;;;2.23;1.23;;;17.70;56.70;;;;;;6034675;23;20980;-68
2023/03/11 12:41:27;;;;;;;2.23;1.30;;;17.80;52.20;;;;;;6033489;23;20908;-69
2023/03/11 12:44:04;;;;;;;1.80;1.03;;;15.80;51.30;;;;;;6032846;23;21082;-69
2023/03/11 12:47:02;;;;;;;2.70;1.20;;;15.00;54.70;;;;;;6004713;23;20848;-69
2023/03/11 12:49:31;;;;;;;3.43;1.17;;;14.50;53.40;;;;;;6009527;23;20442;-68
2023/03/11 12:52:05;;;;;;;2.10;1.23;;;14.10;54.20;;;;;;6030668;23;20528;-68
2023/03/11 12:54:34;;;;;;;1.77;1.13;;;14.20;56.30;;;;;;6038854;23;20965;-68
2023/03/11 12:57:09;;;;;;;3.00;1.57;;;14.40;55.10;;;;;;6051253;23;20472;-68
2023/03/11 13:00:06;;;;;;;1.00;0.90;;;14.50;55.60;;;;;;6038347;23;20517;-68
2023/03/11 13:03:05;;;;;;;3.93;1.30;;;14.30;55.20;;;;;;6061595;23;20497;-67
2023/03/11 13:05:50;;;;;;;1.70;1.10;;;14.30;53.60;;;;;;6006222;23;20467;-68
2023/03/11 13:08:20;;;;;;;1.47;1.07;;;14.10;54.80;;;;;;6033405;23;20484;-68